Time,TemperatureF,DewpointF,PressureIn,WindDirection,WindDirectionDegrees,WindSpeedMPH,WindSpeedGustMPH,Humidity,HourlyPrecipIn,Conditions,Clouds,dailyrainin,SolarRadiationWatts/m^2,SoftwareType,DateUTC
2013-04-08 00:01:00,39.8,38.8,29.79,NE,54,2.0,3.5,96,0.02,-RA,,0.21,0.0,WeatherDisplay:10.37,2013-04-08 05:01:00,
2013-04-08 00:06:00,39.7,38.7,29.79,ENE,74,0.4,3.5,96,0.01,-RA,,0.00,0.0,WeatherDisplay:10.37,2013-04-08 05:06:00,
2013-04-08 00:11:00,39.5,38.5,29.79,NNE,15,2.1,4.0,96,0.01,-RA,,0.00,0.0,WeatherDisplay:10.37,2013-04-08 05:11:00,
2013-04-08 00:16:00,39.4,38.4,29.79,ENE,63,1.3,3.5,96,0.01,-RA,,0.00,0.0,WeatherDisplay:10.37,2013-04-08 05:16:00,
2013-04-08 00:21:00,39.3,38.3,29.78,SE,132,0.5,2.0,96,0.00,-RA,,0.00,0.0,WeatherDisplay:10.37,2013-04-08 05:21:00,
2013-04-08 00:26:00,39.3,38.3,29.78,NE,38,0.7,2.3,96,0.00,-RA,,0.00,0.0,WeatherDisplay:10.37,2013-04-08 05:26:00,
2013-04-08 00:31:00,39.2,38.2,29.78,SSW,208,0.2,4.6,96,0.00,-RA,,0.00,0.0,WeatherDisplay:10.37,2013-04-08 05:31:00,
2013-04-08 00:36:00,39.2,38.2,29.78,SW,236,0.0,3.5,96,0.00,-RA,,0.00,0.0,WeatherDisplay:10.37,2013-04-08 05:36:00,
2013-04-08 00:42:00,39.1,38.1,29.78,NNE,25,2.2,3.5,96,0.00,-RA,,0.00,0.0,WeatherDisplay:10.37,2013-04-08 05:42:00,
2013-04-08 00:48:00,39.0,38.0,29.78,ESE,119,2.0,7.0,96,0.00,-RA,,0.00,0.0,WeatherDisplay:10.37,2013-04-08 05:48:00,
2013-04-08 00:53:00,39.1,38.1,29.79,NE,52,0.0,3.5,96,0.00,-RA,,0.00,0.0,WeatherDisplay:10.37,2013-04-08 05:53:00,
2013-04-08 00:58:00,39.0,38.0,29.79,NW,315,0.1,1.2,96,0.00,-RA,,0.00,0.0,WeatherDisplay:10.37,2013-04-08 05:58:00,
2013-04-08 01:03:00,39.0,38.0,29.78,NW,315,0.3,1.2,96,0.00,OVC,,0.00,0.0,WeatherDisplay:10.37,2013-04-08 06:03:00,
2013-04-08 01:08:00,39.0,38.0,29.78,SSE,155,0.1,2.3,96,0.00,OVC,,0.00,0.0,WeatherDisplay:10.37,2013-04-08 06:08:00,
2013-04-08 01:13:00,38.9,37.9,29.78,NE,41,0.3,2.3,96,0.00,OVC,,0.00,0.0,WeatherDisplay:10.37,2013-04-08 06:13:00,
2013-04-08 01:18:00,38.9,38.1,29.78,NE,42,1.3,3.5,97,0.00,OVC,,0.00,0.0,WeatherDisplay:10.37,2013-04-08 06:18:00,
2013-04-08 01:23:00,38.9,38.1,29.78,ENE,64,0.0,0.0,97,0.00,OVC,,0.00,0.0,WeatherDisplay:10.37,2013-04-08 06:23:00,
2013-04-08 01:28:00,38.8,38.0,29.78,NE,45,1.4,3.5,97,0.00,OVC,,0.00,0.0,WeatherDisplay:10.37,2013-04-08 06:28:00,
2013-04-08 01:33:00,38.8,38.0,29.78,NE,47,0.5,2.0,97,0.00,OVC,,0.00,0.0,WeatherDisplay:10.37,2013-04-08 06:33:00,
2013-04-08 01:38:00,38.8,37.8,29.78,ENE,67,0.3,2.3,96,0.00,OVC,,0.00,0.0,WeatherDisplay:10.37,2013-04-08 06:38:00,
2013-04-08 01:43:00,38.7,37.7,29.78,NE,41,1.5,3.5,96,0.00,OVC,,0.00,0.0,WeatherDisplay:10.37,2013-04-08 06:43:00,
2013-04-08 01:48:00,38.5,37.5,29.78,ENE,78,0.1,1.2,96,0.00,OVC,,0.00,0.0,WeatherDisplay:10.37,2013-04-08 06:48:00,
2013-04-08 01:53:00,38.5,37.7,29.78,NE,49,0.2,1.2,97,0.01,RA,,0.01,0.0,WeatherDisplay:10.37,2013-04-08 06:53:00,
2013-04-08 01:58:00,38.4,37.6,29.78,ENE,65,1.3,3.5,97,0.01,RA,,0.01,0.0,WeatherDisplay:10.37,2013-04-08 06:58:00,
2013-04-08 02:03:00,38.3,37.5,29.78,NE,36,0.4,1.2,97,0.01,OVC,,0.01,0.0,WeatherDisplay:10.37,2013-04-08 07:03:00,
2013-04-08 02:08:00,38.2,37.4,29.78,East,84,0.5,3.5,97,0.01,OVC,,0.01,0.0,WeatherDisplay:10.37,2013-04-08 07:08:00,
2013-04-08 02:14:00,38.2,37.4,29.78,NE,51,0.4,3.5,97,0.01,OVC,,0.01,0.0,WeatherDisplay:10.37,2013-04-08 07:14:00,
2013-04-08 02:20:00,38.2,37.4,29.78,ENE,64,2.8,5.0,97,0.01,OVC,,0.01,0.0,WeatherDisplay:10.37,2013-04-08 07:20:00,
2013-04-08 02:25:00,38.0,37.2,29.78,NE,51,0.9,3.5,97,0.01,OVC,,0.01,0.0,WeatherDisplay:10.37,2013-04-08 07:25:00,
2013-04-08 02:30:00,38.1,37.3,29.77,North,355,1.5,3.5,97,0.01,OVC,,0.01,0.0,WeatherDisplay:10.37,2013-04-08 07:30:00,
2013-04-08 02:35:00,38.1,37.3,29.77,NNE,22,0.4,2.3,97,0.01,OVC,,0.01,0.0,WeatherDisplay:10.37,2013-04-08 07:35:00,
2013-04-08 02:40:00,38.0,37.2,29.77,NNE,19,1.0,4.0,97,0.00,OVC,OVC,0.01,0.0,WeatherDisplay:10.37,2013-04-08 07:40:00,
2013-04-08 02:45:00,37.9,37.1,29.77,NNE,26,2.0,4.0,97,0.00,OVC,OVC,0.01,0.0,WeatherDisplay:10.37,2013-04-08 07:45:00,
2013-04-08 02:50:00,37.9,37.1,29.77,NE,36,0.0,3.0,97,0.00,OVC,OVC,0.01,0.0,WeatherDisplay:10.37,2013-04-08 07:50:00,
2013-04-08 02:55:00,37.8,37.1,29.78,NE,36,1.0,3.0,97,0.00,OVC,OVC,0.01,0.0,WeatherDisplay:10.37,2013-04-08 07:55:00,
2013-04-08 03:00:00,37.8,37.0,29.77,NNE,27,1.0,4.0,97,0.00,OVC,OVC,0.01,0.0,WeatherDisplay:10.37,2013-04-08 08:00:00,
2013-04-08 03:05:00,37.8,37.0,29.78,NNE,25,1.0,3.0,97,0.00,RA,RA,0.02,0.0,WeatherDisplay:10.37,2013-04-08 08:05:00,
2013-04-08 03:10:00,37.8,37.0,29.77,NE,37,1.0,5.0,97,0.00,RA,RA,0.02,0.0,WeatherDisplay:10.37,2013-04-08 08:10:00,
2013-04-08 03:15:00,37.8,37.0,29.77,NE,36,1.0,4.0,97,0.00,OVC,OVC,0.02,0.0,WeatherDisplay:10.37,2013-04-08 08:15:00,
2013-04-08 03:20:00,37.7,36.9,29.77,NE,35,1.0,4.0,97,0.00,OVC,OVC,0.02,0.0,WeatherDisplay:10.37,2013-04-08 08:20:00,
2013-04-08 03:25:00,37.7,36.9,29.77,NE,40,1.0,2.0,97,0.00,OVC,OVC,0.02,0.0,WeatherDisplay:10.37,2013-04-08 08:25:00,
2013-04-08 03:31:00,37.7,36.9,29.77,NNE,25,1.0,3.0,97,0.00,OVC,OVC,0.02,0.0,WeatherDisplay:10.37,2013-04-08 08:31:00,
2013-04-08 03:36:00,37.7,36.9,29.77,ENE,67,1.6,5.0,97,0.01,OVC,,0.02,0.0,WeatherDisplay:10.37,2013-04-08 08:36:00,
2013-04-08 03:41:00,37.5,36.7,29.77,NE,45,0.7,2.3,97,0.01,OVC,,0.02,0.0,WeatherDisplay:10.37,2013-04-08 08:41:00,
2013-04-08 03:46:00,37.6,36.8,29.77,NE,49,3.1,5.0,97,0.02,RA,,0.03,0.0,WeatherDisplay:10.37,2013-04-08 08:46:00,
2013-04-08 03:51:00,37.5,36.7,29.76,ENE,63,3.2,4.0,97,0.02,RA,,0.03,0.0,WeatherDisplay:10.37,2013-04-08 08:51:00,
2013-04-08 03:56:00,37.5,36.7,29.76,NNE,13,0.4,3.5,97,0.02,OVC,,0.03,0.0,WeatherDisplay:10.37,2013-04-08 08:56:00,
2013-04-08 04:01:00,37.5,36.7,29.76,NE,53,2.2,3.5,97,0.02,OVC,,0.03,0.0,WeatherDisplay:10.37,2013-04-08 09:01:00,
2013-04-08 04:06:00,37.5,36.7,29.76,NNW,346,1.7,4.0,97,0.01,OVC,,0.03,0.0,WeatherDisplay:10.37,2013-04-08 09:06:00,
2013-04-08 04:11:00,37.5,36.7,29.76,North,360,1.7,3.5,97,0.01,OVC,,0.03,0.0,WeatherDisplay:10.37,2013-04-08 09:11:00,
2013-04-08 04:16:00,37.4,36.6,29.77,North,5,2.4,5.0,97,0.01,OVC,,0.03,0.0,WeatherDisplay:10.37,2013-04-08 09:16:00,
2013-04-08 04:21:00,37.4,36.6,29.77,NNE,28,0.1,1.2,97,0.01,OVC,,0.03,0.0,WeatherDisplay:10.37,2013-04-08 09:21:00,
2013-04-08 04:26:00,37.3,36.5,29.77,NE,38,1.8,3.5,97,0.01,OVC,,0.03,0.0,WeatherDisplay:10.37,2013-04-08 09:26:00,
2013-04-08 04:31:00,37.2,36.4,29.76,North,355,1.3,5.0,97,0.01,OVC,,0.03,0.0,WeatherDisplay:10.37,2013-04-08 09:31:00,
2013-04-08 04:36:00,37.1,36.3,29.76,NE,45,1.8,3.5,97,0.01,OVC,,0.03,0.0,WeatherDisplay:10.37,2013-04-08 09:36:00,
2013-04-08 04:42:00,37.0,36.2,29.76,North,11,2.2,3.5,97,0.01,OVC,,0.03,0.0,WeatherDisplay:10.37,2013-04-08 09:42:00,
2013-04-08 04:47:00,37.0,36.2,29.76,North,9,0.6,2.3,97,0.00,OVC,,0.03,0.0,WeatherDisplay:10.37,2013-04-08 09:47:00,
2013-04-08 04:52:00,37.0,36.2,29.76,NE,38,3.7,6.0,97,0.00,OVC,,0.03,0.0,WeatherDisplay:10.37,2013-04-08 09:52:00,
2013-04-08 04:57:00,37.0,36.2,29.76,NE,51,3.2,5.0,97,0.00,OVC,,0.03,0.0,WeatherDisplay:10.37,2013-04-08 09:57:00,
2013-04-08 05:03:00,36.9,36.1,29.75,NE,49,3.0,4.0,97,0.00,-RA,,0.03,0.0,WeatherDisplay:10.37,2013-04-08 10:03:00,
2013-04-08 05:08:00,36.9,36.1,29.75,NE,42,3.2,8.0,97,0.00,-RA,,0.03,0.0,WeatherDisplay:10.37,2013-04-08 10:08:00,
2013-04-08 05:13:00,36.9,36.1,29.75,North,11,3.0,7.0,97,0.00,-RA,,0.03,0.0,WeatherDisplay:10.37,2013-04-08 10:13:00,
2013-04-08 05:18:00,36.9,36.1,29.75,NE,40,0.4,3.5,97,0.00,-RA,,0.03,0.0,WeatherDisplay:10.37,2013-04-08 10:18:00,
2013-04-08 05:24:00,36.9,36.1,29.75,NE,51,1.5,4.0,97,0.00,-RA,,0.03,0.0,WeatherDisplay:10.37,2013-04-08 10:24:00,
2013-04-08 05:29:00,37.0,36.2,29.75,North,360,0.7,2.3,97,0.00,-RA,,0.03,0.0,WeatherDisplay:10.37,2013-04-08 10:29:00,
2013-04-08 05:35:00,37.0,36.2,29.75,NNE,12,0.3,3.5,97,0.00,-RA,,0.03,0.0,WeatherDisplay:10.37,2013-04-08 10:35:00,
2013-04-08 05:40:00,37.0,36.2,29.75,North,5,2.4,3.5,97,0.00,-RA,,0.03,0.0,WeatherDisplay:10.37,2013-04-08 10:40:00,
2013-04-08 05:45:00,36.9,36.1,29.75,NNE,12,3.0,7.0,97,0.00,-RA,,0.03,0.0,WeatherDisplay:10.37,2013-04-08 10:45:00,
2013-04-08 05:50:00,36.9,36.1,29.75,NNE,22,3.0,4.0,97,0.00,-RA,,0.03,0.0,WeatherDisplay:10.37,2013-04-08 10:50:00,
2013-04-08 05:55:00,36.8,36.0,29.75,NE,40,3.4,6.0,97,0.00,-RA,,0.03,0.0,WeatherDisplay:10.37,2013-04-08 10:55:00,
2013-04-08 06:00:00,36.8,36.0,29.75,NNE,12,2.8,4.0,97,0.00,-RA,,0.03,0.0,WeatherDisplay:10.37,2013-04-08 11:00:00,
2013-04-08 06:05:00,36.8,36.0,29.75,NNE,22,4.0,6.0,97,0.00,OVC,,0.03,0.0,WeatherDisplay:10.37,2013-04-08 11:05:00,
2013-04-08 06:10:00,36.9,36.1,29.75,NNW,348,1.9,3.5,97,0.00,OVC,,0.03,0.0,WeatherDisplay:10.37,2013-04-08 11:10:00,
2013-04-08 06:15:00,36.9,36.1,29.76,North,355,1.6,3.5,97,0.00,OVC,,0.03,0.0,WeatherDisplay:10.37,2013-04-08 11:15:00,
2013-04-08 06:21:00,36.9,36.1,29.76,NNE,15,2.4,5.0,97,0.00,OVC,,0.03,0.0,WeatherDisplay:10.37,2013-04-08 11:21:00,
2013-04-08 06:26:00,36.9,36.1,29.77,North,5,1.2,4.0,97,0.00,OVC,,0.03,0.0,WeatherDisplay:10.37,2013-04-08 11:26:00,
2013-04-08 06:31:00,36.8,36.0,29.77,NNE,32,1.0,3.5,97,0.00,OVC,,0.03,0.0,WeatherDisplay:10.37,2013-04-08 11:31:00,
2013-04-08 06:36:00,36.7,35.9,29.77,NNE,28,3.2,5.0,97,0.00,OVC,,0.03,0.0,WeatherDisplay:10.37,2013-04-08 11:36:00,
2013-04-08 06:41:00,36.7,35.9,29.77,NNE,17,1.7,4.0,97,0.00,OVC,,0.03,0.0,WeatherDisplay:10.37,2013-04-08 11:41:00,
2013-04-08 06:46:00,36.6,35.8,29.77,North,350,2.3,5.0,97,0.00,OVC,,0.03,0.0,WeatherDisplay:10.37,2013-04-08 11:46:00,
2013-04-08 06:51:00,36.5,35.7,29.77,NNW,346,3.2,5.0,97,0.00,OVC,,0.03,0.0,WeatherDisplay:10.37,2013-04-08 11:51:00,
2013-04-08 06:56:00,36.5,35.7,29.77,North,5,2.6,4.0,97,0.00,OVC,,0.03,0.0,WeatherDisplay:10.37,2013-04-08 11:56:00,
2013-04-08 07:01:00,36.4,35.6,29.77,NNE,18,3.2,5.0,97,0.01,RA,,0.04,0.0,WeatherDisplay:10.37,2013-04-08 12:01:00,
2013-04-08 07:06:00,36.5,35.7,29.77,North,355,3.4,6.0,97,0.01,RA,,0.04,0.0,WeatherDisplay:10.37,2013-04-08 12:06:00,
2013-04-08 07:11:00,36.4,35.6,29.77,North,10,4.0,8.1,97,0.01,OVC,,0.04,0.0,WeatherDisplay:10.37,2013-04-08 12:11:00,
2013-04-08 07:16:00,36.5,35.7,29.78,NNW,334,1.4,4.0,97,0.01,OVC,,0.04,5.0,WeatherDisplay:10.37,2013-04-08 12:16:00,
2013-04-08 07:21:00,36.5,35.7,29.78,NNE,24,0.7,5.0,97,0.01,OVC,,0.04,5.0,WeatherDisplay:10.37,2013-04-08 12:21:00,
2013-04-08 07:26:00,36.5,35.7,29.78,NW,323,1.9,6.0,97,0.01,OVC,,0.04,7.0,WeatherDisplay:10.37,2013-04-08 12:26:00,
2013-04-08 07:31:00,36.5,35.7,29.78,NNW,327,0.2,1.2,97,0.01,OVC,,0.04,14.0,WeatherDisplay:10.37,2013-04-08 12:31:00,
2013-04-08 07:36:00,36.5,35.7,29.78,North,5,3.2,6.0,97,0.01,OVC,,0.04,19.0,WeatherDisplay:10.37,2013-04-08 12:36:00,
2013-04-08 07:41:00,36.5,35.7,29.79,NNW,334,4.5,7.0,97,0.01,OVC,,0.04,23.0,WeatherDisplay:10.37,2013-04-08 12:41:00,
2013-04-08 07:47:00,36.6,35.8,29.79,North,350,1.4,4.0,97,0.01,OVC,,0.04,25.0,WeatherDisplay:10.37,2013-04-08 12:47:00,
2013-04-08 07:53:00,36.6,35.8,29.79,NNW,334,1.9,3.5,97,0.01,OVC,,0.04,39.0,WeatherDisplay:10.37,2013-04-08 12:53:00,
2013-04-08 07:58:00,36.6,35.8,29.79,North,355,1.6,3.0,97,0.01,OVC,,0.04,42.0,WeatherDisplay:10.37,2013-04-08 12:58:00,
2013-04-08 08:03:00,36.7,35.9,29.79,NNE,22,1.5,3.5,97,0.00,OVC,,0.04,32.0,WeatherDisplay:10.37,2013-04-08 13:03:00,
2013-04-08 08:08:00,36.8,36.0,29.79,NE,38,2.7,4.0,97,0.00,OVC,,0.04,40.0,WeatherDisplay:10.37,2013-04-08 13:08:00,
2013-04-08 08:13:00,36.9,36.1,29.79,NNE,29,0.1,1.2,97,0.00,OVC,,0.04,49.0,WeatherDisplay:10.37,2013-04-08 13:13:00,
2013-04-08 08:18:00,37.0,36.2,29.79,NNE,30,1.0,3.5,97,0.00,OVC,,0.04,54.0,WeatherDisplay:10.37,2013-04-08 13:18:00,
2013-04-08 08:23:00,37.2,36.4,29.80,North,5,0.6,2.3,97,0.00,OVC,,0.04,53.0,WeatherDisplay:10.37,2013-04-08 13:23:00,
2013-04-08 08:28:00,37.1,36.3,29.80,NNE,31,1.1,3.5,97,0.00,OVC,,0.04,53.0,WeatherDisplay:10.37,2013-04-08 13:28:00,
2013-04-08 08:33:00,37.3,36.5,29.80,North,5,1.9,5.0,97,0.00,OVC,,0.04,54.0,WeatherDisplay:10.37,2013-04-08 13:33:00,
2013-04-08 08:38:00,37.3,36.5,29.80,NNE,24,2.3,5.0,97,0.00,OVC,,0.04,60.0,WeatherDisplay:10.37,2013-04-08 13:38:00,
2013-04-08 08:43:00,37.4,36.6,29.80,NE,40,3.2,4.6,97,0.00,OVC,,0.04,88.0,WeatherDisplay:10.37,2013-04-08 13:43:00,
2013-04-08 08:48:00,37.4,36.6,29.80,NNE,22,2.3,4.0,97,0.00,OVC,,0.04,125.0,WeatherDisplay:10.37,2013-04-08 13:48:00,
2013-04-08 08:53:00,37.6,36.8,29.80,NNW,342,0.6,3.0,97,0.00,OVC,,0.04,127.0,WeatherDisplay:10.37,2013-04-08 13:53:00,
2013-04-08 08:58:00,37.8,37.0,29.80,NE,38,2.7,4.0,97,0.00,OVC,,0.04,60.0,WeatherDisplay:10.37,2013-04-08 13:58:00,
2013-04-08 09:04:00,37.8,37.0,29.80,NE,40,2.1,4.0,97,0.00,OVC,,0.04,60.0,WeatherDisplay:10.37,2013-04-08 14:04:00,
2013-04-08 09:09:00,37.7,36.9,29.80,North,5,1.9,3.5,97,0.00,OVC,,0.04,56.0,WeatherDisplay:10.37,2013-04-08 14:09:00,
2013-04-08 09:14:00,37.8,37.0,29.80,NE,36,1.2,3.5,97,0.00,OVC,,0.04,102.0,WeatherDisplay:10.37,2013-04-08 14:14:00,
2013-04-08 09:20:00,38.1,37.3,29.81,NNW,331,0.9,2.3,97,0.00,OVC,,0.04,116.0,WeatherDisplay:10.37,2013-04-08 14:20:00,
2013-04-08 09:25:00,38.3,37.5,29.82,NNW,331,0.2,1.2,97,0.00,OVC,,0.04,35.0,WeatherDisplay:10.37,2013-04-08 14:25:00,
2013-04-08 09:31:00,38.3,37.3,29.82,North,358,2.0,4.0,96,0.00,OVC,OVC,0.04,67.0,WeatherDisplay:10.37,2013-04-08 14:31:00,
2013-04-08 09:36:00,38.2,37.2,29.82,NNE,19,1.7,4.0,96,0.00,OVC,,0.04,77.0,WeatherDisplay:10.37,2013-04-08 14:36:00,
2013-04-08 09:41:00,38.2,37.2,29.82,NNW,333,1.5,3.5,96,0.00,OVC,,0.04,84.0,WeatherDisplay:10.37,2013-04-08 14:41:00,
2013-04-08 09:46:00,38.4,37.4,29.83,NNW,340,2.8,5.0,96,0.00,OVC,,0.04,67.0,WeatherDisplay:10.37,2013-04-08 14:46:00,
2013-04-08 09:51:00,38.3,37.3,29.82,NNW,329,1.7,3.5,96,0.00,OVC,,0.04,74.0,WeatherDisplay:10.37,2013-04-08 14:51:00,
2013-04-08 09:56:00,38.2,37.2,29.82,NNE,14,3.9,6.0,96,0.00,OVC,,0.04,91.0,WeatherDisplay:10.37,2013-04-08 14:56:00,
2013-04-08 10:01:00,38.2,37.2,29.82,North,5,2.7,5.0,96,0.00,OVC,,0.04,118.0,WeatherDisplay:10.37,2013-04-08 15:01:00,
2013-04-08 10:06:00,38.2,37.2,29.81,North,360,1.4,4.6,96,0.00,OVC,,0.04,134.0,WeatherDisplay:10.37,2013-04-08 15:06:00,
2013-04-08 10:11:00,38.3,37.3,29.82,NNW,331,1.0,3.5,96,0.00,OVC,,0.04,167.0,WeatherDisplay:10.37,2013-04-08 15:11:00,
2013-04-08 10:16:00,38.6,37.6,29.82,NNW,330,2.1,5.0,96,0.00,OVC,,0.04,127.0,WeatherDisplay:10.37,2013-04-08 15:16:00,
2013-04-08 10:21:00,38.6,37.6,29.82,ENE,62,2.7,5.0,96,0.00,OVC,,0.04,127.0,WeatherDisplay:10.37,2013-04-08 15:21:00,
2013-04-08 10:26:00,38.5,37.5,29.82,North,9,3.4,8.1,96,0.00,OVC,,0.04,111.0,WeatherDisplay:10.37,2013-04-08 15:26:00,
2013-04-08 10:31:00,38.4,37.4,29.82,NNE,30,3.2,5.0,96,0.00,OVC,,0.04,114.0,WeatherDisplay:10.37,2013-04-08 15:31:00,
2013-04-08 10:36:00,38.4,37.4,29.82,NNW,329,1.8,4.0,96,0.00,OVC,,0.04,167.0,WeatherDisplay:10.37,2013-04-08 15:36:00,
2013-04-08 10:41:00,38.4,37.4,29.82,NNW,348,2.9,6.0,96,0.00,OVC,,0.04,128.0,WeatherDisplay:10.37,2013-04-08 15:41:00,
2013-04-08 10:46:00,38.4,37.4,29.83,NNW,335,3.5,5.0,96,0.00,OVC,,0.04,160.0,WeatherDisplay:10.37,2013-04-08 15:46:00,
2013-04-08 10:51:00,38.4,37.4,29.83,NE,35,3.1,5.8,96,0.00,OVC,,0.04,144.0,WeatherDisplay:10.37,2013-04-08 15:51:00,
2013-04-08 10:56:00,38.5,37.5,29.83,NW,319,1.5,4.0,96,0.00,OVC,,0.04,123.0,WeatherDisplay:10.37,2013-04-08 15:56:00,
2013-04-08 11:01:00,38.6,37.6,29.83,ENE,57,4.2,5.0,96,0.00,OVC,,0.04,162.0,WeatherDisplay:10.37,2013-04-08 16:01:00,
2013-04-08 11:06:00,38.6,37.6,29.83,NNW,347,1.0,3.5,96,0.00,OVC,,0.04,193.0,WeatherDisplay:10.37,2013-04-08 16:06:00,
2013-04-08 11:12:00,38.8,37.8,29.83,North,355,4.1,8.1,96,0.00,OVC,,0.04,216.0,WeatherDisplay:10.37,2013-04-08 16:12:00,
2013-04-08 11:17:00,39.0,38.0,29.83,North,5,2.8,5.8,96,0.00,OVC,,0.04,167.0,WeatherDisplay:10.37,2013-04-08 16:17:00,
2013-04-08 11:23:00,38.9,37.9,29.84,NNE,31,4.2,7.0,96,0.00,OVC,,0.04,151.0,WeatherDisplay:10.37,2013-04-08 16:23:00,
2013-04-08 11:28:00,38.9,37.9,29.84,North,355,1.6,5.8,96,0.00,OVC,,0.04,144.0,WeatherDisplay:10.37,2013-04-08 16:28:00,
2013-04-08 11:33:00,39.1,38.1,29.84,NNW,346,2.9,6.0,96,0.00,OVC,,0.04,146.0,WeatherDisplay:10.37,2013-04-08 16:33:00,
2013-04-08 11:38:00,39.1,38.1,29.84,NNW,330,6.0,11.0,96,0.00,OVC,,0.04,200.0,WeatherDisplay:10.37,2013-04-08 16:38:00,
2013-04-08 11:43:00,39.1,38.1,29.84,NNW,327,4.1,7.0,96,0.00,OVC,,0.04,262.0,WeatherDisplay:10.37,2013-04-08 16:43:00,
2013-04-08 11:48:00,39.4,38.1,29.84,NNE,14,3.6,7.0,95,0.00,OVC,,0.04,243.0,WeatherDisplay:10.37,2013-04-08 16:48:00,
2013-04-08 11:54:00,39.5,38.2,29.84,NNE,17,2.3,9.2,95,0.00,OVC,,0.04,206.0,WeatherDisplay:10.37,2013-04-08 16:54:00,
2013-04-08 12:00:00,39.6,38.3,29.84,NNE,22,1.8,6.9,95,0.00,OVC,,0.04,167.0,WeatherDisplay:10.37,2013-04-08 17:00:00,
2013-04-08 12:06:00,39.6,38.3,29.84,North,6,3.0,10.0,95,0.00,OVC,OVC,0.04,232.0,WeatherDisplay:10.37,2013-04-08 17:06:00,
2013-04-08 12:11:00,39.5,38.2,29.84,NNE,28,3.4,6.0,95,0.00,OVC,,0.04,239.0,WeatherDisplay:10.37,2013-04-08 17:11:00,
2013-04-08 12:16:00,39.5,38.2,29.85,North,9,3.5,8.1,95,0.00,OVC,,0.04,248.0,WeatherDisplay:10.37,2013-04-08 17:16:00,
2013-04-08 12:21:00,39.7,38.1,29.85,NE,34,5.3,10.0,94,0.00,OVC,,0.04,250.0,WeatherDisplay:10.37,2013-04-08 17:21:00,
2013-04-08 12:26:00,39.7,38.1,29.85,NNW,329,1.5,8.1,94,0.00,OVC,,0.04,260.0,WeatherDisplay:10.37,2013-04-08 17:26:00,
2013-04-08 12:31:00,39.9,38.3,29.85,NE,37,3.8,7.0,94,0.00,OVC,,0.04,255.0,WeatherDisplay:10.37,2013-04-08 17:31:00,
2013-04-08 12:36:00,40.0,38.4,29.85,North,9,4.3,8.0,94,0.00,OVC,,0.04,283.0,WeatherDisplay:10.37,2013-04-08 17:36:00,
2013-04-08 12:41:00,40.3,38.7,29.85,North,360,4.1,8.1,94,0.00,OVC,,0.04,299.0,WeatherDisplay:10.37,2013-04-08 17:41:00,
2013-04-08 12:46:00,40.6,39.0,29.85,NW,326,0.7,2.3,94,0.00,OVC,,0.04,241.0,WeatherDisplay:10.37,2013-04-08 17:46:00,
2013-04-08 12:51:00,40.7,38.8,29.86,NNE,26,3.7,6.9,93,0.00,OVC,,0.04,230.0,WeatherDisplay:10.37,2013-04-08 17:51:00,
2013-04-08 12:56:00,40.7,38.8,29.85,North,355,2.6,5.0,93,0.00,OVC,,0.04,239.0,WeatherDisplay:10.37,2013-04-08 17:56:00,
2013-04-08 13:01:00,40.8,39.2,29.86,North,9,2.4,7.0,94,0.00,OVC,,0.04,207.0,WeatherDisplay:10.37,2013-04-08 18:01:00,
2013-04-08 13:06:00,40.6,39.0,29.86,North,5,2.2,5.8,94,0.00,OVC,,0.04,158.0,WeatherDisplay:10.37,2013-04-08 18:06:00,
2013-04-08 13:12:00,40.4,38.8,29.86,NNW,342,5.2,7.0,94,0.00,OVC,,0.04,225.0,WeatherDisplay:10.37,2013-04-08 18:12:00,
2013-04-08 13:17:00,40.4,38.8,29.86,NE,36,0.7,3.5,94,0.00,OVC,,0.04,251.0,WeatherDisplay:10.37,2013-04-08 18:17:00,
2013-04-08 13:23:00,40.7,38.8,29.87,NW,321,1.4,3.5,93,0.00,OVC,,0.04,178.0,WeatherDisplay:10.37,2013-04-08 18:23:00,
2013-04-08 13:28:00,40.7,38.8,29.87,NNW,338,2.2,5.0,93,0.00,OVC,,0.04,179.0,WeatherDisplay:10.37,2013-04-08 18:28:00,
2013-04-08 13:34:00,40.9,39.0,29.87,NW,325,2.1,5.0,93,0.00,OVC,,0.04,171.0,WeatherDisplay:10.37,2013-04-08 18:34:00,
2013-04-08 13:40:00,41.1,39.2,29.87,North,355,4.0,7.0,93,0.00,OVC,,0.04,195.0,WeatherDisplay:10.37,2013-04-08 18:40:00,
2013-04-08 13:45:00,41.1,39.0,29.88,NNE,17,2.0,6.0,92,0.00,OVC,,0.04,171.0,WeatherDisplay:10.37,2013-04-08 18:45:00,
2013-04-08 13:50:00,41.0,38.9,29.88,North,360,4.9,6.0,92,0.00,OVC,,0.04,186.0,WeatherDisplay:10.37,2013-04-08 18:50:00,
2013-04-08 13:56:00,40.9,38.8,29.88,NNE,20,6.0,9.0,92,0.00,OVC,OVC,0.04,193.0,WeatherDisplay:10.37,2013-04-08 18:56:00,
2013-04-08 14:01:00,41.0,38.9,29.88,North,11,1.2,2.3,92,0.00,OVC,,0.04,225.0,WeatherDisplay:10.37,2013-04-08 19:01:00,
2013-04-08 14:06:00,41.1,39.0,29.88,NNW,328,3.0,5.0,92,0.00,OVC,,0.04,144.0,WeatherDisplay:10.37,2013-04-08 19:06:00,
2013-04-08 14:11:00,41.0,38.9,29.88,NNW,340,2.8,5.0,92,0.00,OVC,,0.04,134.0,WeatherDisplay:10.37,2013-04-08 19:11:00,
2013-04-08 14:16:00,41.0,38.9,29.88,NE,52,3.0,4.0,92,0.00,OVC,,0.04,128.0,WeatherDisplay:10.37,2013-04-08 19:16:00,
2013-04-08 14:21:00,41.0,38.9,29.88,North,360,1.1,3.5,92,0.00,OVC,,0.04,167.0,WeatherDisplay:10.37,2013-04-08 19:21:00,
2013-04-08 14:26:00,41.2,39.1,29.89,NNW,333,3.5,7.0,92,0.00,OVC,,0.04,158.0,WeatherDisplay:10.37,2013-04-08 19:26:00,
2013-04-08 14:32:00,41.2,39.1,29.89,East,101,1.3,3.5,92,0.00,OVC,,0.04,197.0,WeatherDisplay:10.37,2013-04-08 19:32:00,
2013-04-08 14:37:00,41.3,39.2,29.88,NNW,338,3.7,5.8,92,0.00,OVC,,0.04,190.0,WeatherDisplay:10.37,2013-04-08 19:37:00,
2013-04-08 14:42:00,41.4,39.0,29.88,North,5,3.0,6.0,91,0.00,OVC,,0.04,206.0,WeatherDisplay:10.37,2013-04-08 19:42:00,
2013-04-08 14:47:00,41.5,39.1,29.88,NNE,24,5.5,8.1,91,0.00,OVC,,0.04,218.0,WeatherDisplay:10.37,2013-04-08 19:47:00,
2013-04-08 14:52:00,41.4,39.0,29.88,NNW,336,3.1,10.4,91,0.00,OVC,,0.04,202.0,WeatherDisplay:10.37,2013-04-08 19:52:00,
2013-04-08 14:57:00,41.8,39.4,29.89,NNE,32,4.8,7.0,91,0.00,OVC,,0.04,272.0,WeatherDisplay:10.37,2013-04-08 19:57:00,
2013-04-08 15:03:00,42.0,39.6,29.89,North,350,2.3,5.8,91,0.00,OVC,,0.04,197.0,WeatherDisplay:10.37,2013-04-08 20:03:00,
2013-04-08 15:09:00,41.9,39.2,29.89,NNE,29,3.9,7.0,90,0.00,OVC,,0.04,213.0,WeatherDisplay:10.37,2013-04-08 20:09:00,
2013-04-08 15:14:00,42.0,39.3,29.89,ENE,63,2.8,7.0,90,0.00,OVC,,0.04,227.0,WeatherDisplay:10.37,2013-04-08 20:14:00,
2013-04-08 15:19:00,42.3,39.6,29.88,NNE,13,2.8,5.8,90,0.00,OVC,,0.04,165.0,WeatherDisplay:10.37,2013-04-08 20:19:00,
2013-04-08 15:25:00,42.2,39.2,29.89,NNW,339,6.3,11.5,89,0.00,OVC,,0.04,128.0,WeatherDisplay:10.37,2013-04-08 20:25:00,
2013-04-08 15:31:00,42.0,39.0,29.89,NNE,15,3.0,7.0,89,0.00,OVC,OVC,0.04,111.0,WeatherDisplay:10.37,2013-04-08 20:31:00,
2013-04-08 15:36:00,41.9,39.2,29.89,North,358,2.0,7.0,90,0.00,OVC,OVC,0.04,123.0,WeatherDisplay:10.37,2013-04-08 20:36:00,
2013-04-08 15:41:00,41.9,39.2,29.89,North,11,5.0,8.0,90,0.00,OVC,OVC,0.04,144.0,WeatherDisplay:10.37,2013-04-08 20:41:00,
2013-04-08 15:46:00,41.8,39.1,29.89,NNE,21,3.0,8.0,90,0.00,OVC,OVC,0.04,121.0,WeatherDisplay:10.37,2013-04-08 20:46:00,
2013-04-08 15:51:00,41.8,38.8,29.90,NNE,27,5.0,10.0,89,0.00,OVC,OVC,0.04,134.0,WeatherDisplay:10.37,2013-04-08 20:51:00,
2013-04-08 15:56:00,41.8,39.1,29.90,NNE,17,1.0,10.0,90,0.00,OVC,OVC,0.04,163.0,WeatherDisplay:10.37,2013-04-08 20:56:00,
2013-04-08 16:01:00,42.0,39.3,29.90,NNE,14,3.0,7.0,90,0.00,OVC,OVC,0.04,255.0,WeatherDisplay:10.37,2013-04-08 21:01:00,
2013-04-08 16:06:00,42.3,39.5,29.90,North,358,3.0,8.0,90,0.00,OVC,OVC,0.04,216.0,WeatherDisplay:10.37,2013-04-08 21:06:00,
2013-04-08 16:11:00,42.5,39.5,29.90,North,11,1.8,3.5,89,0.00,OVC,,0.04,163.0,WeatherDisplay:10.37,2013-04-08 21:11:00,
2013-04-08 16:17:00,42.5,39.5,29.91,NW,305,5.1,8.1,89,0.00,OVC,,0.04,149.0,WeatherDisplay:10.37,2013-04-08 21:17:00,
2013-04-08 16:22:00,42.4,39.4,29.91,NE,43,4.9,7.0,89,0.00,OVC,,0.04,132.0,WeatherDisplay:10.37,2013-04-08 21:22:00,
2013-04-08 16:28:00,42.3,39.3,29.91,NNW,344,6.4,12.0,89,0.00,OVC,,0.04,146.0,WeatherDisplay:10.37,2013-04-08 21:28:00,
2013-04-08 16:33:00,42.4,39.4,29.91,NW,326,5.0,7.0,89,0.00,OVC,,0.04,183.0,WeatherDisplay:10.37,2013-04-08 21:33:00,
2013-04-08 16:38:00,42.5,39.5,29.92,NNW,346,4.6,7.0,89,0.00,OVC,,0.04,158.0,WeatherDisplay:10.37,2013-04-08 21:38:00,
2013-04-08 16:43:00,42.6,39.3,29.92,North,5,2.7,7.0,88,0.00,OVC,,0.04,128.0,WeatherDisplay:10.37,2013-04-08 21:43:00,
2013-04-08 16:48:00,42.6,39.3,29.93,NNE,12,2.6,7.0,88,0.00,OVC,,0.04,118.0,WeatherDisplay:10.37,2013-04-08 21:48:00,
2013-04-08 16:53:00,42.7,39.4,29.93,NNW,347,3.2,8.1,88,0.00,OVC,,0.04,111.0,WeatherDisplay:10.37,2013-04-08 21:53:00,
2013-04-08 16:58:00,42.7,39.4,29.93,NW,319,4.8,9.2,88,0.00,OVC,,0.04,90.0,WeatherDisplay:10.37,2013-04-08 21:58:00,
2013-04-08 17:03:00,42.7,39.1,29.93,NNE,23,2.1,6.9,87,0.00,OVC,,0.04,84.0,WeatherDisplay:10.37,2013-04-08 22:03:00,
2013-04-08 17:08:00,42.7,39.4,29.93,North,355,2.4,6.9,88,0.00,OVC,,0.04,84.0,WeatherDisplay:10.37,2013-04-08 22:08:00,
2013-04-08 17:13:00,42.8,39.5,29.94,NNW,348,3.1,5.8,88,0.00,OVC,,0.04,86.0,WeatherDisplay:10.37,2013-04-08 22:13:00,
2013-04-08 17:18:00,42.8,39.2,29.94,North,355,4.4,9.0,87,0.00,OVC,,0.04,95.0,WeatherDisplay:10.37,2013-04-08 22:18:00,
2013-04-08 17:23:00,42.8,39.2,29.94,North,5,2.8,6.0,87,0.00,OVC,,0.04,79.0,WeatherDisplay:10.37,2013-04-08 22:23:00,
2013-04-08 17:28:00,42.7,39.1,29.95,NNW,340,4.0,6.0,87,0.00,OVC,,0.04,69.0,WeatherDisplay:10.37,2013-04-08 22:28:00,
2013-04-08 17:33:00,42.7,39.1,29.95,NNE,20,7.2,11.5,87,0.00,OVC,,0.04,83.0,WeatherDisplay:10.37,2013-04-08 22:33:00,
2013-04-08 17:38:00,42.6,39.0,29.95,NW,325,3.8,6.0,87,0.00,OVC,,0.04,72.0,WeatherDisplay:10.37,2013-04-08 22:38:00,
2013-04-08 17:43:00,42.7,39.1,29.96,NNE,22,5.1,8.1,87,0.00,OVC,,0.04,69.0,WeatherDisplay:10.37,2013-04-08 22:43:00,
2013-04-08 17:49:00,42.7,38.8,29.96,NE,38,7.1,10.4,86,0.00,OVC,,0.04,81.0,WeatherDisplay:10.37,2013-04-08 22:49:00,
2013-04-08 17:54:00,42.6,38.7,29.96,NE,38,5.8,10.4,86,0.00,OVC,,0.04,72.0,WeatherDisplay:10.37,2013-04-08 22:54:00,
2013-04-08 17:59:00,42.6,38.7,29.97,NNW,342,3.9,9.0,86,0.00,OVC,,0.04,49.0,WeatherDisplay:10.37,2013-04-08 22:59:00,
2013-04-08 18:05:00,42.5,38.6,29.98,NW,322,2.9,5.0,86,0.00,OVC,,0.04,46.0,WeatherDisplay:10.37,2013-04-08 23:05:00,
2013-04-08 18:10:00,42.5,38.6,29.98,North,11,6.1,9.0,86,0.00,OVC,,0.04,42.0,WeatherDisplay:10.37,2013-04-08 23:10:00,
2013-04-08 18:15:00,42.4,38.5,29.98,NNW,332,3.5,8.1,86,0.00,OVC,,0.04,39.0,WeatherDisplay:10.37,2013-04-08 23:15:00,
2013-04-08 18:20:00,42.3,38.4,29.98,ENE,66,1.2,2.3,86,0.00,OVC,,0.04,49.0,WeatherDisplay:10.37,2013-04-08 23:20:00,
2013-04-08 18:25:00,42.2,38.3,29.98,NNE,19,4.6,10.0,86,0.00,OVC,,0.04,44.0,WeatherDisplay:10.37,2013-04-08 23:25:00,
2013-04-08 18:31:00,42.2,38.3,29.99,North,354,3.0,12.0,86,0.00,OVC,OVC,0.04,32.0,WeatherDisplay:10.37,2013-04-08 23:31:00,
2013-04-08 18:36:00,42.1,38.2,29.99,NE,35,3.7,7.0,86,0.00,OVC,,0.04,35.0,WeatherDisplay:10.37,2013-04-08 23:36:00,
2013-04-08 18:41:00,41.9,38.0,29.99,NNE,24,2.6,6.9,86,0.00,OVC,,0.04,39.0,WeatherDisplay:10.37,2013-04-08 23:41:00,
2013-04-08 18:46:00,41.8,37.9,29.99,North,350,6.6,11.5,86,0.00,OVC,,0.04,30.0,WeatherDisplay:10.37,2013-04-08 23:46:00,
2013-04-08 18:52:00,41.8,37.9,29.99,NNW,331,3.6,7.0,86,0.00,OVC,,0.04,23.0,WeatherDisplay:10.37,2013-04-08 23:52:00,
2013-04-08 18:57:00,41.6,37.4,30.00,NW,318,7.5,12.7,85,0.00,OVC,,0.04,19.0,WeatherDisplay:10.37,2013-04-08 23:57:00,
2013-04-08 19:02:00,41.4,37.2,30.00,NE,55,4.6,10.4,85,0.00,OVC,,0.04,14.0,WeatherDisplay:10.37,2013-04-09 00:02:00,
2013-04-08 19:07:00,41.2,37.3,30.01,NW,324,2.3,8.1,86,0.00,OVC,,0.04,14.0,WeatherDisplay:10.37,2013-04-09 00:07:00,
2013-04-08 19:12:00,40.9,37.0,30.01,North,5,4.5,8.1,86,0.00,OVC,,0.04,12.0,WeatherDisplay:10.37,2013-04-09 00:12:00,
2013-04-08 19:18:00,40.6,36.7,30.02,North,355,5.8,12.0,86,0.00,OVC,,0.04,11.0,WeatherDisplay:10.37,2013-04-09 00:18:00,
2013-04-08 19:24:00,40.5,36.6,30.02,NNW,340,3.8,9.2,86,0.00,OVC,,0.04,9.0,WeatherDisplay:10.37,2013-04-09 00:24:00,
2013-04-08 19:30:00,40.3,36.7,30.02,NNW,348,2.0,8.0,87,0.00,OVC,OVC,0.04,5.0,WeatherDisplay:10.37,2013-04-09 00:30:00,
2013-04-08 19:35:00,40.2,36.6,30.02,NNW,329,5.0,8.1,87,0.00,OVC,,0.04,5.0,WeatherDisplay:10.37,2013-04-09 00:35:00,
2013-04-08 19:40:00,40.0,36.4,30.02,North,350,4.0,6.0,87,0.00,OVC,,0.04,0.0,WeatherDisplay:10.37,2013-04-09 00:40:00,
2013-04-08 19:45:00,40.0,36.4,30.03,NNW,340,3.0,9.2,87,0.00,OVC,,0.04,0.0,WeatherDisplay:10.37,2013-04-09 00:45:00,
2013-04-08 19:50:00,39.9,36.3,30.03,North,349,1.9,8.1,87,0.00,OVC,,0.04,0.0,WeatherDisplay:10.37,2013-04-09 00:50:00,
2013-04-08 19:55:00,39.8,36.2,30.03,WNW,292,2.3,6.9,87,0.00,OVC,,0.04,0.0,WeatherDisplay:10.37,2013-04-09 00:55:00,
2013-04-08 20:00:00,39.7,36.1,30.04,NNE,12,3.3,6.9,87,0.00,OVC,,0.04,0.0,WeatherDisplay:10.37,2013-04-09 01:00:00,
2013-04-08 20:06:00,39.6,36.0,30.04,North,355,2.9,8.1,87,0.00,OVC,,0.04,0.0,WeatherDisplay:10.37,2013-04-09 01:06:00,
2013-04-08 20:11:00,39.5,36.0,30.04,NNW,338,4.4,7.0,87,0.00,OVC,,0.04,0.0,WeatherDisplay:10.37,2013-04-09 01:11:00,
2013-04-08 20:17:00,39.4,35.9,30.04,North,360,4.1,7.0,87,0.00,OVC,,0.04,0.0,WeatherDisplay:10.37,2013-04-09 01:17:00,
2013-04-08 20:22:00,39.3,35.8,30.04,North,360,4.8,7.0,87,0.00,OVC,,0.04,0.0,WeatherDisplay:10.37,2013-04-09 01:22:00,
2013-04-08 20:27:00,39.3,35.8,30.04,NNE,21,5.3,8.1,87,0.00,OVC,,0.04,0.0,WeatherDisplay:10.37,2013-04-09 01:27:00,
2013-04-08 20:32:00,39.1,35.8,30.04,NW,318,5.1,8.0,88,0.00,OVC,,0.04,0.0,WeatherDisplay:10.37,2013-04-09 01:32:00,
2013-04-08 20:37:00,39.0,35.7,30.03,NE,46,4.7,9.2,88,0.00,OVC,,0.04,0.0,WeatherDisplay:10.37,2013-04-09 01:37:00,
2013-04-08 20:42:00,39.0,35.7,30.03,North,10,4.2,7.0,88,0.00,OVC,,0.04,0.0,WeatherDisplay:10.37,2013-04-09 01:42:00,
2013-04-08 20:47:00,38.9,35.6,30.03,NNE,14,4.4,8.1,88,0.00,OVC,,0.04,0.0,WeatherDisplay:10.37,2013-04-09 01:47:00,
2013-04-08 20:52:00,38.8,35.6,30.02,NNE,30,5.5,9.2,88,0.00,OVC,,0.04,0.0,WeatherDisplay:10.37,2013-04-09 01:52:00,
2013-04-08 20:57:00,38.8,35.6,30.04,NNW,329,1.2,4.0,88,0.00,OVC,,0.04,0.0,WeatherDisplay:10.37,2013-04-09 01:57:00,
2013-04-08 21:02:00,38.8,35.6,30.05,NNW,327,4.3,7.0,88,0.00,OVC,,0.04,0.0,WeatherDisplay:10.37,2013-04-09 02:02:00,
2013-04-08 21:07:00,38.8,35.6,30.05,NNW,327,3.8,7.0,88,0.00,OVC,,0.04,0.0,WeatherDisplay:10.37,2013-04-09 02:07:00,
2013-04-08 21:12:00,38.8,35.6,30.06,NNW,335,4.4,8.1,88,0.00,OVC,,0.04,0.0,WeatherDisplay:10.37,2013-04-09 02:12:00,
2013-04-08 21:18:00,38.7,35.5,30.06,NNW,336,3.8,5.0,88,0.00,OVC,,0.04,0.0,WeatherDisplay:10.37,2013-04-09 02:18:00,
2013-04-08 21:23:00,38.6,35.6,30.06,NNW,348,3.5,6.0,89,0.00,OVC,,0.04,0.0,WeatherDisplay:10.37,2013-04-09 02:23:00,
2013-04-08 21:28:00,38.5,35.5,30.07,NNW,341,2.2,5.0,89,0.00,OVC,,0.04,0.0,WeatherDisplay:10.37,2013-04-09 02:28:00,
2013-04-08 21:33:00,38.4,35.4,30.07,NNE,22,5.5,10.4,89,0.00,OVC,,0.04,0.0,WeatherDisplay:10.37,2013-04-09 02:33:00,
2013-04-08 21:39:00,38.3,35.3,30.06,NNE,19,4.0,6.0,89,0.00,OVC,,0.04,0.0,WeatherDisplay:10.37,2013-04-09 02:39:00,
2013-04-08 21:44:00,38.3,35.3,30.07,North,355,2.2,5.0,89,0.00,OVC,,0.04,0.0,WeatherDisplay:10.37,2013-04-09 02:44:00,
2013-04-08 21:50:00,38.2,35.2,30.07,North,358,3.0,7.0,89,0.00,OVC,OVC,0.04,0.0,WeatherDisplay:10.37,2013-04-09 02:50:00,
2013-04-08 21:55:00,38.2,35.2,30.07,NNE,14,4.3,9.0,89,0.00,OVC,,0.04,0.0,WeatherDisplay:10.37,2013-04-09 02:55:00,
2013-04-08 22:00:00,38.1,35.1,30.07,North,355,3.5,6.0,89,0.00,OVC,,0.04,0.0,WeatherDisplay:10.37,2013-04-09 03:00:00,
2013-04-08 22:05:00,38.0,35.0,30.07,North,5,3.9,7.0,89,0.00,OVC,,0.04,0.0,WeatherDisplay:10.37,2013-04-09 03:05:00,
2013-04-08 22:10:00,38.0,35.0,30.07,North,9,7.7,15.0,89,0.00,OVC,,0.04,0.0,WeatherDisplay:10.37,2013-04-09 03:10:00,
2013-04-08 22:15:00,37.9,34.9,30.07,North,355,3.9,7.0,89,0.00,OVC,,0.04,0.0,WeatherDisplay:10.37,2013-04-09 03:15:00,
2013-04-08 22:20:00,37.9,34.9,30.08,North,3,3.0,8.0,89,0.00,OVC,OVC,0.04,0.0,WeatherDisplay:10.37,2013-04-09 03:20:00,
2013-04-08 22:26:00,37.8,34.8,30.08,NE,36,4.4,9.2,89,0.00,OVC,,0.04,0.0,WeatherDisplay:10.37,2013-04-09 03:26:00,
2013-04-08 22:32:00,37.8,34.8,30.08,North,360,4.2,8.1,89,0.00,OVC,,0.04,0.0,WeatherDisplay:10.37,2013-04-09 03:32:00,
2013-04-08 22:37:00,37.7,34.8,30.08,NW,323,3.2,9.0,89,0.00,OVC,,0.04,0.0,WeatherDisplay:10.37,2013-04-09 03:37:00,
2013-04-08 22:42:00,37.7,34.8,30.09,NNW,335,2.0,4.0,89,0.00,OVC,,0.04,0.0,WeatherDisplay:10.37,2013-04-09 03:42:00,
2013-04-08 22:47:00,37.7,34.8,30.09,NW,319,2.1,6.9,89,0.00,OVC,,0.04,0.0,WeatherDisplay:10.37,2013-04-09 03:47:00,
2013-04-08 22:52:00,37.7,34.8,30.09,North,355,4.8,9.2,89,0.00,OVC,,0.04,0.0,WeatherDisplay:10.37,2013-04-09 03:52:00,
2013-04-08 22:57:00,37.6,34.7,30.10,NNE,13,1.2,5.8,89,0.00,OVC,,0.04,0.0,WeatherDisplay:10.37,2013-04-09 03:57:00,
2013-04-08 23:00:00,37.6,34.9,30.10,North,355,1.1,3.5,90,0.00,OVC,,0.04,0.0,WeatherDisplay:10.37,2013-04-09 04:00:00,
2013-04-08 23:01:00,37.6,34.9,30.10,NE,37,2.8,4.0,90,0.00,OVC,,0.04,0.0,WeatherDisplay:10.37,2013-04-09 04:01:00,
2013-04-08 23:02:00,37.6,34.9,30.10,NNW,333,1.9,5.0,90,0.00,OVC,,0.04,0.0,WeatherDisplay:10.37,2013-04-09 04:02:00,
2013-04-08 23:05:00,37.6,34.6,30.10,NNW,344,1.0,5.0,89,0.00,OVC,OVC,0.04,0.0,WeatherDisplay:10.37,2013-04-09 04:05:00,
2013-04-08 23:10:00,37.6,34.7,30.10,North,359,3.0,8.0,89,0.00,OVC,OVC,0.04,0.0,WeatherDisplay:10.37,2013-04-09 04:10:00,
2013-04-08 23:15:00,37.5,34.6,30.10,North,360,1.6,4.6,89,0.00,OVC,,0.04,0.0,WeatherDisplay:10.37,2013-04-09 04:15:00,
2013-04-08 23:20:00,37.6,34.7,30.10,NW,317,4.8,8.1,89,0.00,OVC,,0.04,0.0,WeatherDisplay:10.37,2013-04-09 04:20:00,
2013-04-08 23:25:00,37.5,34.6,30.10,NNW,348,3.2,6.0,89,0.00,OVC,,0.04,0.0,WeatherDisplay:10.37,2013-04-09 04:25:00,
2013-04-08 23:30:00,37.5,34.6,30.11,NNE,13,2.7,4.0,89,0.00,OVC,,0.04,0.0,WeatherDisplay:10.37,2013-04-09 04:30:00,
2013-04-08 23:35:00,37.5,34.6,30.11,NNW,329,2.0,3.5,89,0.00,OVC,,0.04,0.0,WeatherDisplay:10.37,2013-04-09 04:35:00,
2013-04-08 23:40:00,37.5,34.6,30.11,NNW,347,2.6,5.0,89,0.00,OVC,,0.04,0.0,WeatherDisplay:10.37,2013-04-09 04:40:00,
2013-04-08 23:46:00,37.4,34.5,30.12,NNW,328,1.5,4.0,89,0.00,OVC,,0.04,0.0,WeatherDisplay:10.37,2013-04-09 04:46:00,
2013-04-08 23:51:00,37.3,34.4,30.12,North,355,2.5,5.0,89,0.00,OVC,,0.04,0.0,WeatherDisplay:10.37,2013-04-09 04:51:00,
2013-04-08 23:56:00,37.3,34.4,30.12,NNW,328,1.2,4.6,89,0.00,OVC,,0.04,0.0,WeatherDisplay:10.37,2013-04-09 04:56:00,